createdAt,value
2022-08-01T00:00:48.590Z,98777.88
2022-08-01T00:03:15.576Z,98777.53
2022-08-01T00:05:44.395Z,98779.19
2022-08-01T00:08:11.346Z,98772.06
2022-08-01T00:10:38.369Z,98783.34
2022-08-01T00:13:05.259Z,98780.22
2022-08-01T00:15:33.361Z,98781.47
2022-08-01T00:18:00.438Z,98773.94
2022-08-01T00:20:27.899Z,98783.75
2022-08-01T00:22:54.866Z,98782.50
2022-08-01T00:25:21.810Z,98783.72
2022-08-01T00:28:01.021Z,98781.41
2022-08-01T00:30:27.926Z,98787.69
2022-08-01T00:32:54.822Z,98792.38
2022-08-01T00:35:21.747Z,98783.72
2022-08-01T00:37:48.694Z,98790.88
2022-08-01T00:40:15.787Z,98791.69
2022-08-01T00:42:43.862Z,98788.56
2022-08-01T00:45:12.639Z,98790.16
2022-08-01T00:47:40.412Z,98790.19
2022-08-01T00:50:08.922Z,98791.03
2022-08-01T00:52:36.737Z,98794.88
2022-08-01T00:55:04.417Z,98788.91
2022-08-01T00:58:04.905Z,98787.69
2022-08-01T01:00:19.187Z,98795.97
2022-08-01T01:02:54.612Z,98789.25
2022-08-01T01:05:21.770Z,98787.28
2022-08-01T01:08:00.675Z,98787.63
2022-08-01T01:10:43.794Z,98788.38
2022-08-01T01:13:23.070Z,98789.13
2022-08-01T01:16:05.398Z,98784.69
2022-08-01T01:18:46.158Z,98795.81
2022-08-01T01:21:19.040Z,98787.09
2022-08-01T01:24:35.204Z,98786.22
2022-08-01T01:27:49.209Z,98784.59
2022-08-01T01:30:16.797Z,98789.59
2022-08-01T01:32:51.741Z,98789.56
2022-08-01T01:35:28.402Z,98795.06
2022-08-01T01:38:08.565Z,98797.00
2022-08-01T01:40:37.852Z,98796.91
2022-08-01T01:43:10.624Z,98798.72
2022-08-01T01:45:38.274Z,98803.28
2022-08-01T01:48:08.574Z,98800.78
2022-08-01T01:50:39.759Z,98803.41
2022-08-01T01:53:15.063Z,98801.81
2022-08-01T01:55:49.522Z,98804.81
2022-08-01T01:58:19.179Z,98805.06
2022-08-01T02:00:48.733Z,98805.47
2022-08-01T02:03:20.750Z,98801.25
2022-08-01T02:05:49.471Z,98800.22
2022-08-01T02:08:18.273Z,98804.25
2022-08-01T02:11:07.335Z,98800.25
2022-08-01T02:13:38.042Z,98809.78
2022-08-01T02:16:06.740Z,98802.56
2022-08-01T02:18:34.423Z,98807.66
2022-08-01T02:21:06.467Z,98807.25
2022-08-01T02:23:37.028Z,98814.34
2022-08-01T02:26:14.517Z,98808.75
2022-08-01T02:29:11.492Z,98800.59
2022-08-01T02:31:45.861Z,98814.03
2022-08-01T02:34:19.240Z,98813.59
2022-08-01T02:36:49.351Z,98815.94
2022-08-01T02:39:20.004Z,98811.13
2022-08-01T02:41:53.601Z,98819.34
2022-08-01T02:44:31.155Z,98811.13
2022-08-01T02:47:03.441Z,98816.53
2022-08-01T02:49:40.050Z,98814.94
2022-08-01T02:52:13.738Z,98819.28
2022-08-01T02:54:44.650Z,98814.19
2022-08-01T02:57:14.197Z,98812.19
2022-08-01T02:59:46.134Z,98810.97
2022-08-01T03:02:15.573Z,98810.88
2022-08-01T03:04:44.031Z,98812.78
2022-08-01T03:07:14.091Z,98802.84
2022-08-01T03:09:46.850Z,98806.88
2022-08-01T03:12:18.178Z,98812.06
2022-08-01T03:14:48.826Z,98813.66
2022-08-01T03:17:21.984Z,98817.16
2022-08-01T03:19:50.986Z,98817.47
2022-08-01T03:22:20.554Z,98807.91
2022-08-01T03:24:52.973Z,98812.22
2022-08-01T03:27:25.337Z,98813.63
2022-08-01T03:29:56.507Z,98813.66
2022-08-01T03:32:26.774Z,98808.88
2022-08-01T03:34:53.770Z,98809.50
2022-08-01T03:37:59.938Z,98806.72
2022-08-01T03:40:51.765Z,98810.13
2022-08-01T03:43:33.597Z,98820.59
2022-08-01T03:46:09.018Z,98818.31
2022-08-01T03:48:41.684Z,98823.81
2022-08-01T03:51:10.744Z,98823.00
2022-08-01T03:53:42.340Z,98819.03
2022-08-01T03:56:11.260Z,98821.72
2022-08-01T03:58:41.314Z,98813.88
2022-08-01T04:01:15.495Z,98813.63
2022-08-01T04:03:44.990Z,98814.25
2022-08-01T04:06:12.036Z,98812.72
2022-08-01T04:08:41.183Z,98812.59
2022-08-01T04:11:10.801Z,98813.84
2022-08-01T04:13:38.476Z,98819.22
2022-08-01T04:16:06.005Z,98820.16
2022-08-01T04:18:33.267Z,98819.38
2022-08-01T04:21:00.504Z,98806.81
2022-08-01T04:23:32.830Z,98816.09
2022-08-01T04:26:05.075Z,98814.91
2022-08-01T04:28:36.878Z,98815.09
2022-08-01T04:31:10.559Z,98822.69
2022-08-01T04:33:44.551Z,98832.91
2022-08-01T04:36:13.482Z,98835.09
2022-08-01T04:38:43.143Z,98830.81
2022-08-01T04:41:13.975Z,98837.50
2022-08-01T04:43:44.144Z,98834.38
2022-08-01T04:46:12.985Z,98828.50
2022-08-01T04:48:41.155Z,98826.47
2022-08-01T04:51:16.432Z,98820.84
2022-08-01T04:53:49.466Z,98828.34
2022-08-01T04:56:16.388Z,98831.34
2022-08-01T04:58:44.553Z,98822.47
2022-08-01T05:01:12.147Z,98828.53
2022-08-01T05:03:39.408Z,98827.47
2022-08-01T05:06:06.956Z,98829.81
2022-08-01T05:08:33.920Z,98829.72
2022-08-01T05:11:02.212Z,98825.31
2022-08-01T05:13:29.424Z,98833.63
2022-08-01T05:15:56.515Z,98834.50
2022-08-01T05:18:28.046Z,98830.44
2022-08-01T05:20:56.100Z,98832.91
2022-08-01T05:23:33.451Z,98827.22
2022-08-01T05:26:11.485Z,98836.84
2022-08-01T05:28:42.451Z,98833.69
2022-08-01T05:31:09.385Z,98836.34
2022-08-01T05:33:36.807Z,98830.38
2022-08-01T05:36:04.037Z,98828.22
2022-08-01T05:38:31.546Z,98826.00
2022-08-01T05:40:58.456Z,98831.25
2022-08-01T05:43:28.755Z,98832.53
2022-08-01T05:45:56.521Z,98833.28
2022-08-01T05:48:24.481Z,98836.56
2022-08-01T05:50:58.000Z,98832.66
2022-08-01T05:53:25.778Z,98832.41
2022-08-01T05:55:52.604Z,98833.50
2022-08-01T05:58:19.470Z,98834.91
2022-08-01T06:00:46.296Z,98831.63
2022-08-01T06:03:13.250Z,98834.84
2022-08-01T06:05:40.100Z,98834.84
2022-08-01T06:08:07.211Z,98837.28
2022-08-01T06:10:34.026Z,98847.03
2022-08-01T06:13:03.871Z,98840.94
2022-08-01T06:15:32.589Z,98842.34
2022-08-01T06:18:00.743Z,98841.34
2022-08-01T06:20:27.882Z,98844.50
2022-08-01T06:22:55.449Z,98843.78
2022-08-01T06:25:23.506Z,98849.81
2022-08-01T06:27:50.723Z,98853.09
2022-08-01T06:30:17.977Z,98847.25
2022-08-01T06:32:44.918Z,98841.78
2022-08-01T06:35:12.088Z,98836.69
2022-08-01T06:37:39.271Z,98843.94
2022-08-01T06:40:13.412Z,98838.94
2022-08-01T06:42:43.627Z,98844.53
2022-08-01T06:45:12.056Z,98846.53
2022-08-01T06:47:40.731Z,98847.75
2022-08-01T06:50:13.091Z,98854.91
2022-08-01T06:52:39.969Z,98857.00
2022-08-01T06:55:07.858Z,98857.09
2022-08-01T06:57:35.305Z,98857.56
2022-08-01T07:00:12.624Z,98866.31
2022-08-01T07:02:39.553Z,98860.38
2022-08-01T07:05:06.844Z,98863.13
2022-08-01T07:07:33.653Z,98864.75
2022-08-01T07:10:00.475Z,98862.03
2022-08-01T07:12:27.473Z,98852.91
2022-08-01T07:14:54.443Z,98855.25
2022-08-01T07:17:21.927Z,98852.50
2022-08-01T07:19:49.515Z,98858.44
2022-08-01T07:22:23.235Z,98849.75
2022-08-01T07:24:54.556Z,98856.19
2022-08-01T07:27:25.786Z,98854.69
2022-08-01T07:29:53.663Z,98857.50
2022-08-01T07:32:21.021Z,98857.16
2022-08-01T07:34:47.950Z,98854.75
2022-08-01T07:37:14.969Z,98858.72
2022-08-01T07:39:41.967Z,98851.63
2022-08-01T07:42:09.313Z,98853.66
2022-08-01T07:44:37.954Z,98856.47
2022-08-01T07:47:06.199Z,98850.16
2022-08-01T07:49:39.158Z,98850.53
2022-08-01T07:52:07.271Z,98858.09
2022-08-01T07:54:35.191Z,98847.75
2022-08-01T07:57:03.893Z,98844.59
2022-08-01T07:59:31.154Z,98840.66
2022-08-01T08:01:58.591Z,98841.03
2022-08-01T08:04:26.827Z,98853.72
2022-08-01T08:06:54.489Z,98843.00
2022-08-01T08:09:21.431Z,98850.91
2022-08-01T08:11:48.588Z,98853.31
2022-08-01T08:14:19.972Z,98841.44
2022-08-01T08:16:47.113Z,98845.81
2022-08-01T08:19:14.302Z,98847.78
2022-08-01T08:21:41.328Z,98840.22
2022-08-01T08:24:26.716Z,98841.03
2022-08-01T08:27:01.985Z,98840.19
2022-08-01T08:29:33.254Z,98838.84
2022-08-01T08:32:01.727Z,98841.16
2022-08-01T08:34:29.920Z,98846.81
2022-08-01T08:36:58.920Z,98836.16
2022-08-01T08:39:27.105Z,98839.28
2022-08-01T08:41:54.686Z,98826.50
2022-08-01T08:44:26.675Z,98840.31
2022-08-01T08:47:00.258Z,98838.28
2022-08-01T08:49:35.943Z,98843.50
2022-08-01T08:52:06.085Z,98834.81
2022-08-01T08:54:37.915Z,98838.69
2022-08-01T08:57:05.893Z,98835.38
2022-08-01T08:59:33.037Z,98840.75
2022-08-01T09:02:23.593Z,98843.34
2022-08-01T09:04:54.396Z,98840.00
2022-08-01T09:07:21.674Z,98839.56
2022-08-01T09:09:50.062Z,98843.56
2022-08-01T09:12:21.622Z,98839.38
2022-08-01T09:14:51.249Z,98838.75
2022-08-01T09:17:18.760Z,98846.75
2022-08-01T09:19:52.595Z,98841.94
2022-08-01T09:22:25.846Z,98853.88
2022-08-01T09:25:10.031Z,98848.44
2022-08-01T09:27:44.036Z,98845.66
2022-08-01T09:30:23.383Z,98850.25
2022-08-01T09:32:59.306Z,98856.63
2022-08-01T09:35:36.457Z,98852.88
2022-08-01T09:38:21.445Z,98857.47
2022-08-01T09:41:01.829Z,98855.13
2022-08-01T09:43:32.223Z,98859.84
2022-08-01T09:46:05.409Z,98853.81
2022-08-01T09:48:33.642Z,98843.94
2022-08-01T09:51:07.467Z,98850.38
2022-08-01T09:54:09.664Z,98846.47
2022-08-01T09:56:43.699Z,98843.31
2022-08-01T09:59:11.528Z,98843.69
2022-08-01T10:01:50.905Z,98846.97
2022-08-01T10:04:21.954Z,98854.50
2022-08-01T10:06:55.430Z,98859.69
2022-08-01T10:09:39.663Z,98849.94
2022-08-01T10:12:16.242Z,98842.75
2022-08-01T10:14:46.914Z,98843.53
2022-08-01T10:17:20.720Z,98844.78
2022-08-01T10:19:51.551Z,98844.72
2022-08-01T10:22:24.363Z,98833.09
2022-08-01T10:24:56.317Z,98834.47
2022-08-01T10:27:39.432Z,98835.50
2022-08-01T10:30:19.983Z,98814.63
2022-08-01T10:32:57.309Z,98828.25
2022-08-01T10:35:46.858Z,98834.16
2022-08-01T10:38:13.587Z,98834.59
2022-08-01T10:40:43.299Z,98819.25
2022-08-01T10:43:21.336Z,98817.16
2022-08-01T10:45:51.424Z,98823.94
2022-08-01T10:48:52.119Z,98826.00
2022-08-01T10:51:51.391Z,98810.44
2022-08-01T10:54:13.625Z,98814.69
2022-08-01T10:56:52.673Z,98812.50
2022-08-01T10:59:49.379Z,98811.88
2022-08-01T11:03:05.196Z,98807.13
2022-08-01T11:06:08.283Z,98807.16
2022-08-01T11:08:38.923Z,98809.03
2022-08-01T11:11:08.964Z,98800.59
2022-08-01T11:14:10.674Z,98808.13
2022-08-01T11:16:41.726Z,98807.75
2022-08-01T11:19:09.493Z,98820.94
2022-08-01T11:21:56.932Z,98816.06
2022-08-01T11:24:52.630Z,98800.66
2022-08-01T11:27:33.563Z,98795.38
2022-08-01T11:30:13.143Z,98792.53
2022-08-01T11:33:10.307Z,98791.38
2022-08-01T11:35:59.208Z,98788.22
2022-08-01T11:38:30.941Z,98786.66
2022-08-01T11:41:18.198Z,98781.19
2022-08-01T11:44:10.122Z,98779.84
2022-08-01T11:47:13.527Z,98774.13
2022-08-01T11:49:55.872Z,98781.53
2022-08-01T11:52:35.187Z,98770.34
2022-08-01T11:55:10.505Z,98771.91
2022-08-01T11:57:43.726Z,98778.34
2022-08-01T12:00:20.476Z,98763.25
2022-08-01T12:03:09.713Z,98767.97
2022-08-01T12:05:43.247Z,98758.41
2022-08-01T12:08:11.198Z,98762.94
2022-08-01T12:10:47.164Z,98761.50
2022-08-01T12:13:19.065Z,98747.03
2022-08-01T12:15:56.217Z,98748.94
2022-08-01T12:18:26.538Z,98757.69
2022-08-01T12:21:06.907Z,98758.84
2022-08-01T12:23:41.100Z,98756.53
2022-08-01T12:26:32.474Z,98752.63
2022-08-01T12:28:59.366Z,98747.69
2022-08-01T12:31:34.738Z,98748.63
2022-08-01T12:34:31.269Z,98749.97
2022-08-01T12:37:03.765Z,98736.41
2022-08-01T12:39:34.916Z,98753.41
2022-08-01T12:42:06.179Z,98735.41
2022-08-01T12:44:34.372Z,98751.47
2022-08-01T12:47:04.033Z,98760.59
2022-08-01T12:49:37.531Z,98741.81
2022-08-01T12:52:12.868Z,98745.88
2022-08-01T12:55:09.849Z,98726.75
2022-08-01T12:57:45.727Z,98740.06
2022-08-01T13:00:22.365Z,98731.59
2022-08-01T13:03:10.094Z,98738.56
2022-08-01T13:05:59.753Z,98747.84
2022-08-01T13:08:34.117Z,98741.88
2022-08-01T13:11:06.070Z,98743.63
2022-08-01T13:13:44.327Z,98743.03
2022-08-01T13:16:30.934Z,98734.94
2022-08-01T13:19:11.579Z,98739.13
2022-08-01T13:21:53.736Z,98741.81
2022-08-01T13:24:32.165Z,98736.56
2022-08-01T13:27:06.243Z,98732.22
2022-08-01T13:29:44.354Z,98738.06
2022-08-01T13:32:29.924Z,98736.03
2022-08-01T13:35:10.725Z,98734.97
2022-08-01T13:37:49.454Z,98734.53
2022-08-01T13:40:30.490Z,98730.44
2022-08-01T13:42:58.131Z,98728.84
2022-08-01T13:45:26.411Z,98740.69
2022-08-01T13:48:03.260Z,98732.69
2022-08-01T13:50:39.520Z,98735.88
2022-08-01T13:53:06.310Z,98736.34
2022-08-01T13:55:35.325Z,98716.56
2022-08-01T13:58:03.796Z,98719.88
2022-08-01T14:00:31.206Z,98719.91
2022-08-01T14:02:58.032Z,98729.25
2022-08-01T14:05:24.910Z,98724.72
2022-08-01T14:07:56.540Z,98720.81
2022-08-01T14:10:24.950Z,98718.13
2022-08-01T14:12:51.749Z,98709.25
2022-08-01T14:15:38.189Z,98712.75
2022-08-01T14:18:10.108Z,98722.66
2022-08-01T14:20:39.390Z,98715.72
2022-08-01T14:23:08.911Z,98711.56
2022-08-01T14:26:02.736Z,98711.28
2022-08-01T14:28:30.977Z,98716.06
2022-08-01T14:30:59.245Z,98723.47
2022-08-01T14:33:27.431Z,98721.63
2022-08-01T14:36:06.680Z,98724.38
2022-08-01T14:38:46.521Z,98719.50
2022-08-01T14:41:17.707Z,98734.00
2022-08-01T14:43:49.797Z,98724.22
2022-08-01T14:46:17.480Z,98725.31
2022-08-01T14:48:47.126Z,98723.06
2022-08-01T14:51:14.407Z,98716.38
2022-08-01T14:53:50.691Z,98712.31
2022-08-01T14:56:18.574Z,98714.66
2022-08-01T14:58:46.232Z,98701.97
2022-08-01T15:01:19.733Z,98716.13
2022-08-01T15:03:49.017Z,98705.72
2022-08-01T15:06:16.911Z,98707.88
2022-08-01T15:08:44.758Z,98716.34
2022-08-01T15:11:12.760Z,98719.88
2022-08-01T15:13:42.624Z,98704.84
2022-08-01T15:16:10.196Z,98701.34
2022-08-01T15:18:39.565Z,98713.44
2022-08-01T15:21:06.932Z,98715.72
2022-08-01T15:23:34.825Z,98716.47
2022-08-01T15:26:01.716Z,98723.47
2022-08-01T15:28:28.678Z,98725.03
2022-08-01T15:30:55.845Z,98714.81
2022-08-01T15:33:22.868Z,98720.47
2022-08-01T15:35:53.430Z,98712.75
2022-08-01T15:38:20.515Z,98716.34
2022-08-01T15:40:47.329Z,98710.75
2022-08-01T15:43:15.883Z,98711.69
2022-08-01T15:45:47.716Z,98714.38
2022-08-01T15:48:16.751Z,98711.84
2022-08-01T15:50:44.058Z,98711.59
2022-08-01T15:53:11.385Z,98710.88
2022-08-01T15:55:39.766Z,98708.59
2022-08-01T15:58:08.213Z,98706.59
2022-08-01T16:00:39.158Z,98717.75
2022-08-01T16:03:10.119Z,98724.38
2022-08-01T16:05:42.851Z,98714.19
2022-08-01T16:08:14.113Z,98705.91
2022-08-01T16:10:41.487Z,98710.28
2022-08-01T16:13:09.338Z,98704.88
2022-08-01T16:15:37.862Z,98702.75
2022-08-01T16:18:12.523Z,98707.84
2022-08-01T16:20:45.124Z,98715.63
2022-08-01T16:23:15.243Z,98716.19
2022-08-01T16:25:42.394Z,98697.25
2022-08-01T16:28:09.904Z,98714.59
2022-08-01T16:30:47.831Z,98720.56
2022-08-01T16:33:41.584Z,98720.56
2022-08-01T16:36:09.387Z,98715.31
2022-08-01T16:38:45.042Z,98720.56
2022-08-01T16:41:19.410Z,98714.31
2022-08-01T16:43:53.405Z,98725.56
2022-08-01T16:46:25.509Z,98721.47
2022-08-01T16:48:53.979Z,98724.44
2022-08-01T16:51:21.001Z,98730.63
2022-08-01T16:53:48.215Z,98720.84
2022-08-01T16:56:15.043Z,98718.91
2022-08-01T16:58:41.916Z,98714.25
2022-08-01T17:01:58.316Z,98714.03
2022-08-01T17:04:00.912Z,98711.34
2022-08-01T17:06:31.561Z,98724.59
2022-08-01T17:09:03.520Z,98720.75
2022-08-01T17:11:31.465Z,98727.75
2022-08-01T17:14:00.758Z,98730.69
2022-08-01T17:16:27.657Z,98729.66
2022-08-01T17:18:54.511Z,98733.72
2022-08-01T17:21:21.511Z,98740.97
2022-08-01T17:23:48.786Z,98733.94
2022-08-01T17:26:15.821Z,98734.34
2022-08-01T17:28:43.570Z,98737.47
2022-08-01T17:31:10.873Z,98735.13
2022-08-01T17:33:45.490Z,98737.50
2022-08-01T17:36:14.040Z,98749.06
2022-08-01T17:38:40.985Z,98744.78
2022-08-01T17:41:08.937Z,98749.25
2022-08-01T17:43:37.283Z,98743.72
2022-08-01T17:46:04.148Z,98747.75
2022-08-01T17:48:31.026Z,98747.47
2022-08-01T17:50:57.906Z,98754.69
2022-08-01T17:53:24.808Z,98761.47
2022-08-01T17:55:53.252Z,98750.78
2022-08-01T17:58:33.029Z,98751.19
2022-08-01T18:01:17.303Z,98755.97
2022-08-01T18:03:45.956Z,98754.34
2022-08-01T18:06:19.237Z,98752.03
2022-08-01T18:08:47.959Z,98755.66
2022-08-01T18:11:17.109Z,98752.84
2022-08-01T18:13:44.719Z,98749.72
2022-08-01T18:16:13.200Z,98760.53
2022-08-01T18:18:42.244Z,98755.00
2022-08-01T18:21:11.770Z,98757.78
2022-08-01T18:23:38.608Z,98756.59
2022-08-01T18:26:09.043Z,98759.00
2022-08-01T18:28:46.316Z,98765.81
2022-08-01T18:31:17.275Z,98762.63
2022-08-01T18:33:44.834Z,98765.09
2022-08-01T18:36:25.486Z,98761.91
2022-08-01T18:39:00.254Z,98772.69
2022-08-01T18:41:27.243Z,98772.38
2022-08-01T18:44:03.924Z,98770.44
2022-08-01T18:46:39.600Z,98777.19
2022-08-01T18:49:11.100Z,98782.38
2022-08-01T18:51:43.733Z,98785.19
2022-08-01T18:54:14.026Z,98793.94
2022-08-01T18:56:45.510Z,98783.22
2022-08-01T18:59:15.910Z,98787.25
2022-08-01T19:01:43.735Z,98801.56
2022-08-01T19:04:11.711Z,98799.59
2022-08-01T19:06:39.068Z,98805.16
2022-08-01T19:09:07.917Z,98814.00
2022-08-01T19:11:36.716Z,98811.22
2022-08-01T19:14:04.223Z,98810.06
2022-08-01T19:16:31.563Z,98820.81
2022-08-01T19:18:58.548Z,98819.22
2022-08-01T19:21:25.708Z,98817.69
2022-08-01T19:24:11.215Z,98819.28
2022-08-01T19:26:40.385Z,98826.84
2022-08-01T19:29:19.066Z,98820.47
2022-08-01T19:31:49.204Z,98817.34
2022-08-01T19:34:20.130Z,98821.34
2022-08-01T19:36:57.069Z,98823.31
2022-08-01T19:39:29.666Z,98824.09
2022-08-01T19:41:59.312Z,98833.25
2022-08-01T19:44:28.854Z,98834.47
2022-08-01T19:46:55.967Z,98846.41
2022-08-01T19:49:23.948Z,98843.63
2022-08-01T19:52:03.890Z,98846.03
2022-08-01T19:54:38.478Z,98851.16
2022-08-01T19:57:08.155Z,98848.00
2022-08-01T19:59:36.850Z,98856.38
2022-08-01T20:02:05.226Z,98857.16
2022-08-01T20:04:33.835Z,98855.56
2022-08-01T20:07:02.927Z,98846.44
2022-08-01T20:09:31.462Z,98854.00
2022-08-01T20:11:58.386Z,98848.06
2022-08-01T20:14:27.011Z,98848.88
2022-08-01T20:16:58.501Z,98855.22
2022-08-01T20:19:27.571Z,98859.63
2022-08-01T20:22:04.651Z,98868.75
2022-08-01T20:24:43.606Z,98872.72
2022-08-01T20:27:13.939Z,98881.88
2022-08-01T20:29:44.143Z,98884.66
2022-08-01T20:32:11.949Z,98879.47
2022-08-01T20:34:39.730Z,98879.50
2022-08-01T20:37:09.467Z,98882.66
2022-08-01T20:39:45.202Z,98887.00
2022-08-01T20:42:14.707Z,98884.22
2022-08-01T20:44:43.354Z,98881.47
2022-08-01T20:47:10.700Z,98874.72
2022-08-01T20:49:38.066Z,98878.69
2022-08-01T20:52:11.829Z,98879.50
2022-08-01T20:54:43.111Z,98885.06
2022-08-01T20:57:26.281Z,98883.06
2022-08-01T21:00:05.667Z,98889.00
2022-08-01T21:02:51.366Z,98888.22
2022-08-01T21:05:55.757Z,98892.19
2022-08-01T21:08:58.678Z,98898.13
2022-08-01T21:11:32.936Z,98893.38
2022-08-01T21:14:06.076Z,98899.34
2022-08-01T21:16:40.697Z,98900.91
2022-08-01T21:19:27.827Z,98912.41
2022-08-01T21:22:14.531Z,98908.84
2022-08-01T21:25:08.311Z,98910.03
2022-08-01T21:27:39.540Z,98906.06
2022-08-01T21:30:10.673Z,98910.03
2022-08-01T21:32:42.421Z,98914.38
2022-08-01T21:35:16.282Z,98913.56
2022-08-01T21:37:51.891Z,98918.34
2022-08-01T21:40:22.815Z,98913.56
2022-08-01T21:42:52.930Z,98913.59
2022-08-01T21:45:23.355Z,98913.59
2022-08-01T21:47:51.620Z,98916.75
2022-08-01T21:50:27.302Z,98913.16
2022-08-01T21:53:30.549Z,98917.53
2022-08-01T21:56:14.981Z,98912.78
2022-08-01T21:59:05.334Z,98915.53
2022-08-01T22:02:02.035Z,98924.22
2022-08-01T22:05:01.555Z,98919.03
2022-08-01T22:07:36.827Z,98919.81
2022-08-01T22:10:06.759Z,98922.97
2022-08-01T22:12:36.061Z,98923.38
2022-08-01T22:15:06.920Z,98924.91
2022-08-01T22:17:34.765Z,98925.66
2022-08-01T22:20:04.292Z,98922.47
2022-08-01T22:22:51.248Z,98920.47
2022-08-01T22:25:54.211Z,98926.75
2022-08-01T22:28:25.043Z,98922.38
2022-08-01T22:31:07.423Z,98921.13
2022-08-01T22:33:39.171Z,98919.91
2022-08-01T22:36:08.913Z,98928.19
2022-08-01T22:38:39.906Z,98928.19
2022-08-01T22:41:15.523Z,98925.03
2022-08-01T22:44:13.896Z,98924.53
2022-08-01T22:47:01.640Z,98929.13
2022-08-01T22:50:02.076Z,98924.75
2022-08-01T22:52:35.354Z,98928.34
2022-08-01T22:55:12.964Z,98927.47
2022-08-01T22:58:03.545Z,98937.31
2022-08-01T23:00:35.258Z,98930.19
2022-08-01T23:03:14.653Z,98938.78
2022-08-01T23:06:34.546Z,98926.53
2022-08-01T23:09:03.636Z,98934.69
2022-08-01T23:11:34.166Z,98923.44
2022-08-01T23:16:31.330Z,98924.97
2022-08-01T23:18:59.784Z,98927.78
2022-08-01T23:21:32.350Z,98924.91
2022-08-01T23:24:02.073Z,98916.94
2022-08-01T23:26:32.074Z,98931.56
2022-08-01T23:28:59.483Z,98929.91
2022-08-01T23:32:00.431Z,98922.78
2022-08-01T23:34:19.809Z,98927.16
2022-08-01T23:36:47.331Z,98923.16
2022-08-01T23:39:14.185Z,98921.41
2022-08-01T23:41:58.603Z,98924.34
2022-08-01T23:44:28.950Z,98926.25
2022-08-01T23:46:55.922Z,98934.59
2022-08-01T23:49:23.141Z,98931.84
2022-08-01T23:51:50.508Z,98929.09
2022-08-01T23:54:17.766Z,98928.75
2022-08-01T23:56:44.634Z,98932.53
2022-08-01T23:59:15.137Z,98927.72
